sensor_id;sensor_type;location;lat;lon;timestamp;pressure;altitude;pressure_sealevel;temperature;humidity
69318;BME280;56457;52.190;4.440;2023-04-15T00:00:59;100938.56;;;10.02;100.00
69318;BME280;56457;52.190;4.440;2023-04-15T00:01:59;100939.44;;;10.04;100.00
69318;BME280;56457;52.190;4.440;2023-04-15T00:02:59;100936.84;;;10.01;100.00
69318;BME280;56457;52.190;4.440;2023-04-15T00:04:01;100937.72;;;9.97;100.00
69318;BME280;56457;52.190;4.440;2023-04-15T00:05:01;100942.06;;;10.01;100.00
69318;BME280;56457;52.190;4.440;2023-04-15T00:06:02;100936.84;;;9.95;100.00
69318;BME280;56457;52.190;4.440;2023-04-15T00:07:02;100937.72;;;9.95;100.00
69318;BME280;56457;52.190;4.440;2023-04-15T00:08:03;100933.34;;;9.91;100.00
69318;BME280;56457;52.190;4.440;2023-04-15T00:09:03;100940.34;;;9.94;100.00
69318;BME280;56457;52.190;4.440;2023-04-15T00:10:03;100939.47;;;9.92;100.00
69318;BME280;56457;52.190;4.440;2023-04-15T00:11:04;100936.84;;;9.95;100.00
69318;BME280;56457;52.190;4.440;2023-04-15T00:12:05;100946.47;;;9.94;100.00
69318;BME280;56457;52.190;4.440;2023-04-15T00:13:05;100942.97;;;9.91;100.00
69318;BME280;56457;52.190;4.440;2023-04-15T00:14:05;100943.84;;;9.90;100.00
69318;BME280;56457;52.190;4.440;2023-04-15T00:15:07;100945.63;;;9.88;100.00
69318;BME280;56457;52.190;4.440;2023-04-15T00:16:08;100946.47;;;9.87;100.00
69318;BME280;56457;52.190;4.440;2023-04-15T00:17:09;100949.06;;;9.93;100.00
69318;BME280;56457;52.190;4.440;2023-04-15T00:18:09;100950.84;;;9.89;100.00
69318;BME280;56457;52.190;4.440;2023-04-15T00:19:10;100949.97;;;9.87;100.00
69318;BME280;56457;52.190;4.440;2023-04-15T00:20:11;100943.91;;;9.78;100.00
69318;BME280;56457;52.190;4.440;2023-04-15T00:21:11;100950.03;;;9.72;100.00
69318;BME280;56457;52.190;4.440;2023-04-15T00:22:12;100939.53;;;9.74;100.00
69318;BME280;56457;52.190;4.440;2023-04-15T00:23:12;100936.91;;;9.72;100.00
69318;BME280;56457;52.190;4.440;2023-04-15T00:24:12;100938.66;;;9.71;100.00
69318;BME280;56457;52.190;4.440;2023-04-15T00:25:13;100940.41;;;9.71;100.00
69318;BME280;56457;52.190;4.440;2023-04-15T00:26:14;100944.78;;;9.67;100.00
69318;BME280;56457;52.190;4.440;2023-04-15T00:27:14;100936.88;;;9.80;100.00
69318;BME280;56457;52.190;4.440;2023-04-15T00:28:15;100941.25;;;9.81;100.00
69318;BME280;56457;52.190;4.440;2023-04-15T00:29:15;100949.13;;;9.73;100.00
69318;BME280;56457;52.190;4.440;2023-04-15T00:30:16;100941.25;;;9.75;100.00
69318;BME280;56457;52.190;4.440;2023-04-15T00:31:16;100939.53;;;9.75;100.00
69318;BME280;56457;52.190;4.440;2023-04-15T00:32:16;100941.31;;;9.70;100.00
69318;BME280;56457;52.190;4.440;2023-04-15T00:33:17;100943.91;;;9.73;100.00
69318;BME280;56457;52.190;4.440;2023-04-15T00:34:17;100943.91;;;9.73;100.00
69318;BME280;56457;52.190;4.440;2023-04-15T00:35:17;100950.03;;;9.60;100.00
69318;BME280;56457;52.190;4.440;2023-04-15T00:36:17;100953.53;;;9.56;100.00
69318;BME280;56457;52.190;4.440;2023-04-15T00:37:18;100946.56;;;9.55;100.00
69318;BME280;56457;52.190;4.440;2023-04-15T00:38:19;100948.31;;;9.59;100.00
69318;BME280;56457;52.190;4.440;2023-04-15T00:39:19;100948.31;;;9.57;100.00
69318;BME280;56457;52.190;4.440;2023-04-15T00:40:20;100945.72;;;9.51;100.00
69318;BME280;56457;52.190;4.440;2023-04-15T00:41:21;100947.47;;;9.40;100.00
69318;BME280;56457;52.190;4.440;2023-04-15T00:42:22;100942.22;;;9.44;100.00
69318;BME280;56457;52.190;4.440;2023-04-15T00:43:23;100947.44;;;9.49;100.00
69318;BME280;56457;52.190;4.440;2023-04-15T00:44:23;100946.59;;;9.46;100.00
69318;BME280;56457;52.190;4.440;2023-04-15T00:45:24;100950.97;;;9.45;100.00
69318;BME280;56457;52.190;4.440;2023-04-15T00:46:24;100954.47;;;9.38;100.00
69318;BME280;56457;52.190;4.440;2023-04-15T00:47:26;100951.81;;;9.36;100.00
69318;BME280;56457;52.190;4.440;2023-04-15T00:48:27;100950.09;;;9.44;100.00
69318;BME280;56457;52.190;4.440;2023-04-15T00:49:27;100953.53;;;9.50;100.00
69318;BME280;56457;52.190;4.440;2023-04-15T00:50:28;100950.09;;;9.44;100.00
69318;BME280;56457;52.190;4.440;2023-04-15T00:51:28;100950.06;;;9.43;100.00
69318;BME280;56457;52.190;4.440;2023-04-15T00:52:28;100947.50;;;9.26;100.00
69318;BME280;56457;52.190;4.440;2023-04-15T00:53:29;100945.75;;;9.21;100.00
69318;BME280;56457;52.190;4.440;2023-04-15T00:54:29;100951.84;;;9.26;100.00
69318;BME280;56457;52.190;4.440;2023-04-15T00:55:29;100947.47;;;9.17;100.00
69318;BME280;56457;52.190;4.440;2023-04-15T00:56:30;100953.56;;;9.17;100.00
69318;BME280;56457;52.190;4.440;2023-04-15T00:57:31;100952.69;;;9.18;100.00
69318;BME280;56457;52.190;4.440;2023-04-15T00:58:32;100949.22;;;9.24;100.00
69318;BME280;56457;52.190;4.440;2023-04-15T00:59:32;100947.47;;;9.22;100.00
69318;BME280;56457;52.190;4.440;2023-04-15T01:00:33;100955.31;;;9.25;100.00
69318;BME280;56457;52.190;4.440;2023-04-15T01:01:34;100951.84;;;9.23;100.00
69318;BME280;56457;52.190;4.440;2023-04-15T01:02:34;100950.09;;;9.28;100.00
69318;BME280;56457;52.190;4.440;2023-04-15T01:03:35;100955.34;;;9.22;100.00
69318;BME280;56457;52.190;4.440;2023-04-15T01:04:35;100946.59;;;9.23;100.00
69318;BME280;56457;52.190;4.440;2023-04-15T01:05:36;100947.47;;;9.22;100.00
69318;BME280;56457;52.190;4.440;2023-04-15T01:06:37;100944.84;;;9.23;100.00
69318;BME280;56457;52.190;4.440;2023-04-15T01:07:38;100955.34;;;9.28;100.00
69318;BME280;56457;52.190;4.440;2023-04-15T01:08:38;100949.25;;;9.26;100.00
69318;BME280;56457;52.190;4.440;2023-04-15T01:09:38;100957.09;;;9.27;100.00
69318;BME280;56457;52.190;4.440;2023-04-15T01:10:39;100952.72;;;9.15;100.00
69318;BME280;56457;52.190;4.440;2023-04-15T01:11:39;100952.72;;;9.15;100.00
69318;BME280;56457;52.190;4.440;2023-04-15T01:12:40;100956.22;;;9.13;100.00
69318;BME280;56457;52.190;4.440;2023-04-15T01:13:41;100957.09;;;9.15;100.00
69318;BME280;56457;52.190;4.440;2023-04-15T01:14:41;100954.47;;;9.20;100.00
69318;BME280;56457;52.190;4.440;2023-04-15T01:15:42;100953.59;;;9.14;100.00
69318;BME280;56457;52.190;4.440;2023-04-15T01:16:42;100960.56;;;9.11;100.00
69318;BME280;56457;52.190;4.440;2023-04-15T01:17:44;100948.38;;;9.08;100.00
69318;BME280;56457;52.190;4.440;2023-04-15T01:18:45;100959.72;;;9.07;100.00
69318;BME280;56457;52.190;4.440;2023-04-15T01:19:46;100961.44;;;9.14;100.00
69318;BME280;56457;52.190;4.440;2023-04-15T01:20:46;100957.94;;;9.15;100.00
69318;BME280;56457;52.190;4.440;2023-04-15T01:21:47;100954.47;;;9.13;100.00
69318;BME280;56457;52.190;4.440;2023-04-15T01:22:47;100951.84;;;9.09;100.00
69318;BME280;56457;52.190;4.440;2023-04-15T01:23:48;100950.09;;;9.05;100.00
69318;BME280;56457;52.190;4.440;2023-04-15T01:24:53;100957.94;;;9.06;100.00
69318;BME280;56457;52.190;4.440;2023-04-15T01:25:54;100957.09;;;9.09;100.00
69318;BME280;56457;52.190;4.440;2023-04-15T01:26:55;100953.59;;;9.10;100.00
69318;BME280;56457;52.190;4.440;2023-04-15T01:27:55;100952.72;;;9.09;100.00
69318;BME280;56457;52.190;4.440;2023-04-15T01:28:56;100950.97;;;9.01;100.00
69318;BME280;56457;52.190;4.440;2023-04-15T01:29:56;100951.81;;;9.06;100.00
69318;BME280;56457;52.190;4.440;2023-04-15T01:31:07;100950.09;;;9.02;100.00
69318;BME280;56457;52.190;4.440;2023-04-15T01:32:07;100951.84;;;9.03;100.00
69318;BME280;56457;52.190;4.440;2023-04-15T01:33:08;100952.72;;;9.11;100.00
69318;BME280;56457;52.190;4.440;2023-04-15T01:34:08;100952.69;;;9.12;100.00
69318;BME280;56457;52.190;4.440;2023-04-15T01:35:08;100956.19;;;9.05;100.00
69318;BME280;56457;52.190;4.440;2023-04-15T01:36:09;100945.75;;;9.08;100.00
69318;BME280;56457;52.190;4.440;2023-04-15T01:37:10;100948.34;;;8.98;100.00
69318;BME280;56457;52.190;4.440;2023-04-15T01:38:10;100950.97;;;8.95;100.00
69318;BME280;56457;52.190;4.440;2023-04-15T01:39:11;100955.31;;;8.94;100.00
69318;BME280;56457;52.190;4.440;2023-04-15T01:40:11;100952.72;;;8.91;100.00
69318;BME280;56457;52.190;4.440;2023-04-15T01:41:13;100955.31;;;8.91;100.00
69318;BME280;56457;52.190;4.440;2023-04-15T01:42:13;100950.06;;;8.86;100.00
69318;BME280;56457;52.190;4.440;2023-04-15T01:43:13;100955.31;;;8.83;100.00
69318;BME280;56457;52.190;4.440;2023-04-15T01:44:14;100950.06;;;8.80;100.00
69318;BME280;56457;52.190;4.440;2023-04-15T01:45:14;100950.97;;;8.82;100.00
69318;BME280;56457;52.190;4.440;2023-04-15T01:46:15;100955.31;;;8.85;100.00
69318;BME280;56457;52.190;4.440;2023-04-15T01:47:15;100953.56;;;8.85;100.00
69318;BME280;56457;52.190;4.440;2023-04-15T01:48:16;100957.06;;;8.80;100.00
69318;BME280;56457;52.190;4.440;2023-04-15T01:49:17;100958.81;;;8.82;100.00
69318;BME280;56457;52.190;4.440;2023-04-15T01:50:18;100968.38;;;8.79;100.00
69318;BME280;56457;52.190;4.440;2023-04-15T01:51:19;100958.78;;;8.75;100.00
69318;BME280;56457;52.190;4.440;2023-04-15T01:52:19;100962.25;;;8.75;100.00
69318;BME280;56457;52.190;4.440;2023-04-15T01:53:20;100956.19;;;8.81;100.00
69318;BME280;56457;52.190;4.440;2023-04-15T01:54:20;100968.38;;;8.79;100.00
69318;BME280;56457;52.190;4.440;2023-04-15T01:55:20;100964.91;;;8.78;100.00
69318;BME280;56457;52.190;4.440;2023-04-15T01:56:21;100966.66;;;8.79;100.00
69318;BME280;56457;52.190;4.440;2023-04-15T01:57:23;100964.00;;;8.75;100.00
69318;BME280;56457;52.190;4.440;2023-04-15T01:58:23;100960.53;;;8.80;100.00
69318;BME280;56457;52.190;4.440;2023-04-15T01:59:24;100959.69;;;8.77;100.00
69318;BME280;56457;52.190;4.440;2023-04-15T02:00:24;100967.50;;;8.75;100.00
69318;BME280;56457;52.190;4.440;2023-04-15T02:01:25;100969.25;;;8.79;100.00
69318;BME280;56457;52.190;4.440;2023-04-15T02:02:25;100965.78;;;8.80;100.00
69318;BME280;56457;52.190;4.440;2023-04-15T02:03:25;100963.16;;;8.79;100.00
69318;BME280;56457;52.190;4.440;2023-04-15T02:04:26;100966.63;;;8.81;100.00
69318;BME280;56457;52.190;4.440;2023-04-15T02:05:27;100967.50;;;8.72;100.00
69318;BME280;56457;52.190;4.440;2023-04-15T02:06:27;100964.03;;;8.79;100.00
69318;BME280;56457;52.190;4.440;2023-04-15T02:07:27;100957.91;;;8.73;100.00
69318;BME280;56457;52.190;4.440;2023-04-15T02:08:31;100970.13;;;8.71;100.00
69318;BME280;56457;52.190;4.440;2023-04-15T02:09:31;100976.22;;;8.65;100.00
69318;BME280;56457;52.190;4.440;2023-04-15T02:10:31;100964.00;;;8.61;100.00
69318;BME280;56457;52.190;4.440;2023-04-15T02:11:32;100971.84;;;8.67;100.00
69318;BME280;56457;52.190;4.440;2023-04-15T02:12:32;100969.25;;;8.70;100.00
69318;BME280;56457;52.190;4.440;2023-04-15T02:13:34;100977.09;;;8.73;100.00
69318;BME280;56457;52.190;4.440;2023-04-15T02:14:34;100971.00;;;8.73;100.00
69318;BME280;56457;52.190;4.440;2023-04-15T02:15:35;100975.34;;;8.74;100.00
69318;BME280;56457;52.190;4.440;2023-04-15T02:16:35;100964.00;;;8.69;100.00
69318;BME280;56457;52.190;4.440;2023-04-15T02:17:36;100967.50;;;8.71;100.00
69318;BME280;56457;52.190;4.440;2023-04-15T02:18:36;100979.69;;;8.62;100.00
69318;BME280;56457;52.190;4.440;2023-04-15T02:19:36;100970.97;;;8.60;100.00
69318;BME280;56457;52.190;4.440;2023-04-15T02:20:38;100973.59;;;8.59;100.00
69318;BME280;56457;52.190;4.440;2023-04-15T02:21:38;100977.94;;;8.54;100.00
69318;BME280;56457;52.190;4.440;2023-04-15T02:22:39;100973.56;;;8.54;100.00
69318;BME280;56457;52.190;4.440;2023-04-15T02:23:39;100984.06;;;8.57;100.00
69318;BME280;56457;52.190;4.440;2023-04-15T02:24:40;100987.56;;;8.64;100.00
69318;BME280;56457;52.190;4.440;2023-04-15T02:25:40;100983.19;;;8.60;100.00
69318;BME280;56457;52.190;4.440;2023-04-15T02:26:40;100984.91;;;8.59;100.00
69318;BME280;56457;52.190;4.440;2023-04-15T02:27:40;100992.75;;;8.62;100.00
69318;BME280;56457;52.190;4.440;2023-04-15T02:28:41;100983.16;;;8.61;100.00
69318;BME280;56457;52.190;4.440;2023-04-15T02:29:42;100984.91;;;8.53;100.00
69318;BME280;56457;52.190;4.440;2023-04-15T02:30:42;100989.25;;;8.53;100.00
69318;BME280;56457;52.190;4.440;2023-04-15T02:31:42;100997.13;;;8.51;100.00
69318;BME280;56457;52.190;4.440;2023-04-15T02:32:43;100984.88;;;8.46;100.00
69318;BME280;56457;52.190;4.440;2023-04-15T02:33:44;100996.22;;;8.49;100.00
69318;BME280;56457;52.190;4.440;2023-04-15T02:34:44;100990.97;;;8.48;100.00
69318;BME280;56457;52.190;4.440;2023-04-15T02:35:45;100999.72;;;8.51;100.00
69318;BME280;56457;52.190;4.440;2023-04-15T02:36:45;100994.47;;;8.50;100.00
69318;BME280;56457;52.190;4.440;2023-04-15T02:37:47;101002.34;;;8.53;100.00
69318;BME280;56457;52.190;4.440;2023-04-15T02:38:48;100997.97;;;8.56;100.00
69318;BME280;56457;52.190;4.440;2023-04-15T02:39:48;100994.50;;;8.51;100.00
69318;BME280;56457;52.190;4.440;2023-04-15T02:40:49;101004.06;;;8.49;100.00
69318;BME280;56457;52.190;4.440;2023-04-15T02:41:50;101004.97;;;8.51;100.00
69318;BME280;56457;52.190;4.440;2023-04-15T02:42:51;101001.41;;;8.43;100.00
69318;BME280;56457;52.190;4.440;2023-04-15T02:43:51;100999.69;;;8.39;100.00
69318;BME280;56457;52.190;4.440;2023-04-15T02:44:52;101004.03;;;8.39;100.00
69318;BME280;56457;52.190;4.440;2023-04-15T02:45:53;101001.44;;;8.45;100.00
69318;BME280;56457;52.190;4.440;2023-04-15T02:46:54;101004.03;;;8.42;100.00
69318;BME280;56457;52.190;4.440;2023-04-15T02:47:54;101004.91;;;8.39;100.00
69318;BME280;56457;52.190;4.440;2023-04-15T02:48:55;100999.69;;;8.41;100.00
69318;BME280;56457;52.190;4.440;2023-04-15T02:49:55;101000.56;;;8.40;100.00
69318;BME280;56457;52.190;4.440;2023-04-15T02:51:10;101002.28;;;8.42;100.00
69318;BME280;56457;52.190;4.440;2023-04-15T02:52:10;101011.88;;;8.42;100.00
69318;BME280;56457;52.190;4.440;2023-04-15T02:53:10;101005.81;;;8.46;100.00
69318;BME280;56457;52.190;4.440;2023-04-15T02:54:12;101006.66;;;8.43;100.00
69318;BME280;56457;52.190;4.440;2023-04-15T02:55:12;101013.63;;;8.40;100.00
69318;BME280;56457;52.190;4.440;2023-04-15T02:56:13;101013.66;;;8.47;100.00
69318;BME280;56457;52.190;4.440;2023-04-15T02:57:14;101008.41;;;8.50;100.00
69318;BME280;56457;52.190;4.440;2023-04-15T02:58:15;101010.16;;;8.47;100.00
69318;BME280;56457;52.190;4.440;2023-04-15T02:59:15;101014.50;;;8.48;100.00
69318;BME280;56457;52.190;4.440;2023-04-15T03:00:15;101010.13;;;8.44;100.00
69318;BME280;56457;52.190;4.440;2023-04-15T03:01:16;101018.84;;;8.44;100.00
69318;BME280;56457;52.190;4.440;2023-04-15T03:02:16;101011.00;;;8.41;100.00
69318;BME280;56457;52.190;4.440;2023-04-15T03:03:16;101017.97;;;8.39;100.00
69318;BME280;56457;52.190;4.440;2023-04-15T03:04:16;101013.59;;;8.38;100.00
69318;BME280;56457;52.190;4.440;2023-04-15T03:05:17;101018.81;;;8.38;100.00
69318;BME280;56457;52.190;4.440;2023-04-15T03:06:17;101012.75;;;8.41;100.00
69318;BME280;56457;52.190;4.440;2023-04-15T03:07:18;101010.09;;;8.33;100.00
69318;BME280;56457;52.190;4.440;2023-04-15T03:08:18;101012.69;;;8.33;100.00
69318;BME280;56457;52.190;4.440;2023-04-15T03:09:20;101019.63;;;8.31;100.00
69318;BME280;56457;52.190;4.440;2023-04-15T03:10:20;101006.59;;;8.34;100.00
69318;BME280;56457;52.190;4.440;2023-04-15T03:11:21;101012.66;;;8.30;100.00
69318;BME280;56457;52.190;4.440;2023-04-15T03:12:21;101012.66;;;8.27;100.00
69318;BME280;56457;52.190;4.440;2023-04-15T03:13:22;101016.13;;;8.24;100.00
69318;BME280;56457;52.190;4.440;2023-04-15T03:14:23;101019.59;;;8.25;100.00
69318;BME280;56457;52.190;4.440;2023-04-15T03:15:23;101012.69;;;8.34;100.00
69318;BME280;56457;52.190;4.440;2023-04-15T03:16:24;101014.41;;;8.31;100.00
69318;BME280;56457;52.190;4.440;2023-04-15T03:17:24;101019.63;;;8.28;100.00
69318;BME280;56457;52.190;4.440;2023-04-15T03:18:25;101018.75;;;8.29;100.00
69318;BME280;56457;52.190;4.440;2023-04-15T03:19:25;101017.91;;;8.30;100.00
69318;BME280;56457;52.190;4.440;2023-04-15T03:20:25;101022.25;;;8.31;100.00
69318;BME280;56457;52.190;4.440;2023-04-15T03:21:26;101019.63;;;8.26;100.00
69318;BME280;56457;52.190;4.440;2023-04-15T03:22:26;101017.03;;;8.28;100.00
69318;BME280;56457;52.190;4.440;2023-04-15T03:23:27;101019.59;;;8.23;100.00
69318;BME280;56457;52.190;4.440;2023-04-15T03:24:27;101025.72;;;8.24;100.00
69318;BME280;56457;52.190;4.440;2023-04-15T03:25:29;101015.25;;;8.22;100.00
69318;BME280;56457;52.190;4.440;2023-04-15T03:26:30;101024.84;;;8.25;100.00
69318;BME280;56457;52.190;4.440;2023-04-15T03:27:30;101030.06;;;8.25;100.00
69318;BME280;56457;52.190;4.440;2023-04-15T03:28:31;101029.19;;;8.26;100.00
69318;BME280;56457;52.190;4.440;2023-04-15T03:29:31;101027.47;;;8.26;100.00
69318;BME280;56457;52.190;4.440;2023-04-15T03:30:32;101036.19;;;8.27;100.00
69318;BME280;56457;52.190;4.440;2023-04-15T03:31:32;101031.00;;;8.34;100.00
69318;BME280;56457;52.190;4.440;2023-04-15T03:32:32;101030.09;;;8.29;100.00
69318;BME280;56457;52.190;4.440;2023-04-15T03:33:33;101026.63;;;8.35;100.00
69318;BME280;56457;52.190;4.440;2023-04-15T03:34:33;101036.19;;;8.30;100.00
69318;BME280;56457;52.190;4.440;2023-04-15T03:35:33;101027.44;;;8.25;100.00
69318;BME280;56457;52.190;4.440;2023-04-15T03:36:33;101030.13;;;8.34;100.00
69318;BME280;56457;52.190;4.440;2023-04-15T03:37:34;101035.38;;;8.35;100.00
69318;BME280;56457;52.190;4.440;2023-04-15T03:38:34;101031.00;;;8.34;100.00
69318;BME280;56457;52.190;4.440;2023-04-15T03:39:35;101033.63;;;8.38;100.00
69318;BME280;56457;52.190;4.440;2023-04-15T03:40:35;101036.25;;;8.36;100.00
69318;BME280;56457;52.190;4.440;2023-04-15T03:41:36;101041.53;;;8.45;100.00
69318;BME280;56457;52.190;4.440;2023-04-15T03:42:36;101036.31;;;8.45;100.00
69318;BME280;56457;52.190;4.440;2023-04-15T03:43:36;101039.78;;;8.50;100.00
69318;BME280;56457;52.190;4.440;2023-04-15T03:44:37;101038.91;;;8.42;100.00
69318;BME280;56457;52.190;4.440;2023-04-15T03:45:37;101040.56;;;8.34;100.00
69318;BME280;56457;52.190;4.440;2023-04-15T03:46:37;101041.47;;;8.36;100.00
69318;BME280;56457;52.190;4.440;2023-04-15T03:47:38;101034.53;;;8.41;100.00
69318;BME280;56457;52.190;4.440;2023-04-15T03:48:38;101043.25;;;8.40;100.00
69318;BME280;56457;52.190;4.440;2023-04-15T03:49:38;101046.72;;;8.36;100.00
69318;BME280;56457;52.190;4.440;2023-04-15T03:50:38;101048.47;;;8.42;100.00
69318;BME280;56457;52.190;4.440;2023-04-15T03:51:39;101041.50;;;8.39;100.00
69318;BME280;56457;52.190;4.440;2023-04-15T03:52:39;101048.44;;;8.32;100.00
69318;BME280;56457;52.190;4.440;2023-04-15T03:53:40;101044.97;;;8.38;100.00
69318;BME280;56457;52.190;4.440;2023-04-15T03:54:40;101045.88;;;8.51;100.00
69318;BME280;56457;52.190;4.440;2023-04-15T03:55:40;101050.25;;;8.47;100.00
69318;BME280;56457;52.190;4.440;2023-04-15T03:56:40;101058.94;;;8.43;100.00
69318;BME280;56457;52.190;4.440;2023-04-15T03:57:41;101054.53;;;8.33;100.00
69318;BME280;56457;52.190;4.440;2023-04-15T03:58:41;101053.63;;;8.31;100.00
69318;BME280;56457;52.190;4.440;2023-04-15T03:59:41;101053.63;;;8.31;100.00
69318;BME280;56457;52.190;4.440;2023-04-15T04:00:42;101057.09;;;8.31;100.00
69318;BME280;56457;52.190;4.440;2023-04-15T04:01:42;101057.94;;;8.26;100.00
69318;BME280;56457;52.190;4.440;2023-04-15T04:02:42;101057.94;;;8.21;100.00
69318;BME280;56457;52.190;4.440;2023-04-15T04:03:43;101057.06;;;8.25;100.00
69318;BME280;56457;52.190;4.440;2023-04-15T04:04:43;101061.47;;;8.26;100.00
69318;BME280;56457;52.190;4.440;2023-04-15T04:05:43;101066.69;;;8.31;100.00
69318;BME280;56457;52.190;4.440;2023-04-15T04:06:44;101065.81;;;8.32;100.00
69318;BME280;56457;52.190;4.440;2023-04-15T04:07:44;101064.06;;;8.26;100.00
69318;BME280;56457;52.190;4.440;2023-04-15T04:08:44;101070.13;;;8.21;100.00
69318;BME280;56457;52.190;4.440;2023-04-15T04:09:45;101073.59;;;8.14;100.00
69318;BME280;56457;52.190;4.440;2023-04-15T04:10:45;101074.44;;;8.13;100.00
69318;BME280;56457;52.190;4.440;2023-04-15T04:11:45;101071.84;;;8.14;100.00
69318;BME280;56457;52.190;4.440;2023-04-15T04:12:46;101081.41;;;8.12;100.00
69318;BME280;56457;52.190;4.440;2023-04-15T04:13:46;101077.06;;;8.17;100.00
69318;BME280;56457;52.190;4.440;2023-04-15T04:14:46;101086.72;;;8.32;100.00
69318;BME280;56457;52.190;4.440;2023-04-15T04:15:47;101082.38;;;8.28;100.00
69318;BME280;56457;52.190;4.440;2023-04-15T04:16:47;101084.09;;;8.23;100.00
69318;BME280;56457;52.190;4.440;2023-04-15T04:17:47;101084.94;;;8.22;100.00
69318;BME280;56457;52.190;4.440;2023-04-15T04:18:48;101093.66;;;8.22;100.00
69318;BME280;56457;52.190;4.440;2023-04-15T04:19:48;101084.94;;;8.20;100.00
69318;BME280;56457;52.190;4.440;2023-04-15T04:20:48;101088.44;;;8.21;100.00
69318;BME280;56457;52.190;4.440;2023-04-15T04:21:49;101091.88;;;8.20;100.00
69318;BME280;56457;52.190;4.440;2023-04-15T04:22:49;101092.75;;;8.19;100.00
69318;BME280;56457;52.190;4.440;2023-04-15T04:23:49;101099.78;;;8.27;100.00
69318;BME280;56457;52.190;4.440;2023-04-15T04:24:50;101093.69;;;8.30;100.00
69318;BME280;56457;52.190;4.440;2023-04-15T04:25:50;101098.94;;;8.27;100.00
69318;BME280;56457;52.190;4.440;2023-04-15T04:26:51;101101.50;;;8.25;100.00
69318;BME280;56457;52.190;4.440;2023-04-15T04:27:52;101105.81;;;8.17;100.00
69318;BME280;56457;52.190;4.440;2023-04-15T04:28:52;101100.59;;;8.19;100.00
69318;BME280;56457;52.190;4.440;2023-04-15T04:29:52;101102.34;;;8.17;100.00
69318;BME280;56457;52.190;4.440;2023-04-15T04:30:52;101104.09;;;8.18;100.00
69318;BME280;56457;52.190;4.440;2023-04-15T04:31:53;101103.16;;;8.13;100.00
69318;BME280;56457;52.190;4.440;2023-04-15T04:32:53;101104.03;;;8.12;100.00
69318;BME280;56457;52.190;4.440;2023-04-15T04:33:53;101104.91;;;8.09;100.00
69318;BME280;56457;52.190;4.440;2023-04-15T04:34:54;101098.78;;;8.05;100.00
69318;BME280;56457;52.190;4.440;2023-04-15T04:35:55;101109.19;;;8.01;100.00
69318;BME280;56457;52.190;4.440;2023-04-15T04:36:55;101108.31;;;7.99;100.00
69318;BME280;56457;52.190;4.440;2023-04-15T04:37:55;101103.09;;;7.96;100.00
69318;BME280;56457;52.190;4.440;2023-04-15T04:38:56;101109.16;;;7.93;100.00
69318;BME280;56457;52.190;4.440;2023-04-15T04:39:56;101112.63;;;7.91;100.00
69318;BME280;56457;52.190;4.440;2023-04-15T04:40:56;101110.88;;;7.91;100.00
69318;BME280;56457;52.190;4.440;2023-04-15T04:41:57;101108.22;;;7.87;100.00
69318;BME280;56457;52.190;4.440;2023-04-15T04:42:57;101112.56;;;7.83;100.00
69318;BME280;56457;52.190;4.440;2023-04-15T04:43:58;101122.09;;;7.81;100.00
69318;BME280;56457;52.190;4.440;2023-04-15T04:44:58;101122.97;;;7.77;100.00
69318;BME280;56457;52.190;4.440;2023-04-15T04:45:58;101125.53;;;7.72;100.00
69318;BME280;56457;52.190;4.440;2023-04-15T04:46:58;101128.13;;;7.71;100.00
69318;BME280;56457;52.190;4.440;2023-04-15T04:47:59;101127.28;;;7.72;100.00
69318;BME280;56457;52.190;4.440;2023-04-15T04:48:59;101131.63;;;7.71;100.00
69318;BME280;56457;52.190;4.440;2023-04-15T04:49:59;101125.50;;;7.69;100.00
69318;BME280;56457;52.190;4.440;2023-04-15T04:51:00;101128.09;;;7.65;100.00
69318;BME280;56457;52.190;4.440;2023-04-15T04:52:00;101136.75;;;7.64;100.00
69318;BME280;56457;52.190;4.440;2023-04-15T04:53:01;101133.31;;;7.66;100.00
69318;BME280;56457;52.190;4.440;2023-04-15T04:54:02;101139.41;;;7.65;100.00
69318;BME280;56457;52.190;4.440;2023-04-15T04:55:03;101138.50;;;7.63;100.00
69318;BME280;56457;52.190;4.440;2023-04-15T04:56:03;101141.97;;;7.62;100.00
69318;BME280;56457;52.190;4.440;2023-04-15T04:57:04;101145.44;;;7.61;100.00
69318;BME280;56457;52.190;4.440;2023-04-15T04:58:04;101136.75;;;7.61;100.00
69318;BME280;56457;52.190;4.440;2023-04-15T04:59:04;101144.56;;;7.61;100.00
69318;BME280;56457;52.190;4.440;2023-04-15T05:00:06;101152.38;;;7.57;100.00
69318;BME280;56457;52.190;4.440;2023-04-15T05:01:07;101160.19;;;7.54;100.00
69318;BME280;56457;52.190;4.440;2023-04-15T05:02:08;101152.34;;;7.56;100.00
69318;BME280;56457;52.190;4.440;2023-04-15T05:03:08;101158.50;;;7.58;100.00
69318;BME280;56457;52.190;4.440;2023-04-15T05:04:08;101152.38;;;7.57;100.00
69318;BME280;56457;52.190;4.440;2023-04-15T05:05:09;101161.94;;;7.55;100.00
69318;BME280;56457;52.190;4.440;2023-04-15T05:06:10;101163.66;;;7.55;100.00
69318;BME280;56457;52.190;4.440;2023-04-15T05:07:10;101162.78;;;7.54;100.00
69318;BME280;56457;52.190;4.440;2023-04-15T05:08:11;101166.28;;;7.53;100.00
69318;BME280;56457;52.190;4.440;2023-04-15T05:09:11;101168.00;;;7.53;100.00
69318;BME280;56457;52.190;4.440;2023-04-15T05:10:11;101167.13;;;7.52;100.00
69318;BME280;56457;52.190;4.440;2023-04-15T05:11:13;101169.72;;;7.51;100.00
69318;BME280;56457;52.190;4.440;2023-04-15T05:12:14;101173.19;;;7.51;100.00
69318;BME280;56457;52.190;4.440;2023-04-15T05:13:14;101172.31;;;7.49;100.00
69318;BME280;56457;52.190;4.440;2023-04-15T05:14:14;101178.41;;;7.48;100.00
69318;BME280;56457;52.190;4.440;2023-04-15T05:15:15;101176.59;;;7.44;100.00
69318;BME280;56457;52.190;4.440;2023-04-15T05:16:15;101171.38;;;7.43;100.00
69318;BME280;56457;52.190;4.440;2023-04-15T05:17:16;101181.00;;;7.48;100.00